EDDP

Leipzig/Halle Airport

Airport
ICAO code
EDDP
IATA Code
LEJ
Summary
ICAO Region
EUR
ICAO Territory
Location

Schkeuditz,

Serving
Leipzig
Elevation
470 ft
Coordinates
51° 25' 19" N , 12° 13' 13" E
Metar
EDDP 151620Z AUTO 07005KT CAVOK 28/12 Q1011 NOSIG

Runways

Designator Length Width Surface Rops
08L/26R 3600 45 CON Yes/Yes
08R/26L 3600 60 CON Yes/Yes

Airport map

Aerial View

SKYbrary Partners:

Safety knowledge contributed by: